sensor_id;sensor_type;location;lat;lon;timestamp;pressure;altitude;pressure_sealevel;temperature;humidity
12793;BME280;6460;42.684;23.260;2023-06-24T00:01:09;94579.63;;;23.09;100.00
12793;BME280;6460;42.684;23.260;2023-06-24T00:03:38;94582.25;;;23.00;100.00
12793;BME280;6460;42.684;23.260;2023-06-24T00:06:07;94576.50;;;22.94;100.00
12793;BME280;6460;42.684;23.260;2023-06-24T00:08:34;94576.94;;;22.80;100.00
12793;BME280;6460;42.684;23.260;2023-06-24T00:11:02;94568.94;;;22.41;100.00
12793;BME280;6460;42.684;23.260;2023-06-24T00:13:29;94569.34;;;22.10;100.00
12793;BME280;6460;42.684;23.260;2023-06-24T00:15:56;94568.81;;;22.15;100.00
12793;BME280;6460;42.684;23.260;2023-06-24T00:18:23;94575.31;;;21.89;100.00
12793;BME280;6460;42.684;23.260;2023-06-24T00:20:55;94569.81;;;22.38;100.00
12793;BME280;6460;42.684;23.260;2023-06-24T00:23:24;94565.84;;;22.55;100.00
12793;BME280;6460;42.684;23.260;2023-06-24T00:25:51;94564.44;;;22.63;100.00
12793;BME280;6460;42.684;23.260;2023-06-24T00:28:19;94567.03;;;22.70;100.00
12793;BME280;6460;42.684;23.260;2023-06-24T00:30:46;94567.94;;;22.80;100.00
12793;BME280;6460;42.684;23.260;2023-06-24T00:33:14;94564.78;;;22.81;100.00
12793;BME280;6460;42.684;23.260;2023-06-24T00:35:45;94583.97;;;22.65;100.00
12793;BME280;6460;42.684;23.260;2023-06-24T00:38:12;94579.91;;;22.41;100.00
12793;BME280;6460;42.684;23.260;2023-06-24T00:40:41;94579.19;;;22.08;100.00
12793;BME280;6460;42.684;23.260;2023-06-24T00:43:09;94579.72;;;21.83;100.00
12793;BME280;6460;42.684;23.260;2023-06-24T00:45:37;94573.78;;;22.04;100.00
12793;BME280;6460;42.684;23.260;2023-06-24T00:48:04;94564.03;;;22.20;100.00
12793;BME280;6460;42.684;23.260;2023-06-24T00:50:32;94565.38;;;22.28;100.00
12793;BME280;6460;42.684;23.260;2023-06-24T00:53:01;94564.00;;;22.36;100.00
12793;BME280;6460;42.684;23.260;2023-06-24T00:55:28;94556.97;;;22.35;100.00
12793;BME280;6460;42.684;23.260;2023-06-24T00:57:57;94559.53;;;22.42;100.00
12793;BME280;6460;42.684;23.260;2023-06-24T01:00:25;94558.38;;;22.27;100.00
12793;BME280;6460;42.684;23.260;2023-06-24T01:02:53;94553.88;;;22.49;100.00
12793;BME280;6460;42.684;23.260;2023-06-24T01:05:21;94556.47;;;22.40;100.00
12793;BME280;6460;42.684;23.260;2023-06-24T01:07:49;94547.91;;;22.38;100.00
12793;BME280;6460;42.684;23.260;2023-06-24T01:10:21;94552.00;;;22.46;100.00
12793;BME280;6460;42.684;23.260;2023-06-24T01:12:49;94542.81;;;22.52;100.00
12793;BME280;6460;42.684;23.260;2023-06-24T01:15:19;94543.38;;;22.60;100.00
12793;BME280;6460;42.684;23.260;2023-06-24T01:17:52;94536.66;;;22.48;100.00
12793;BME280;6460;42.684;23.260;2023-06-24T01:20:25;94541.88;;;22.59;100.00
12793;BME280;6460;42.684;23.260;2023-06-24T01:26:04;94543.16;;;22.09;100.00
12793;BME280;6460;42.684;23.260;2023-06-24T01:28:52;94544.47;;;22.34;100.00
12793;BME280;6460;42.684;23.260;2023-06-24T01:31:34;94555.28;;;22.25;100.00
12793;BME280;6460;42.684;23.260;2023-06-24T01:34:13;94566.25;;;21.92;100.00
12793;BME280;6460;42.684;23.260;2023-06-24T01:36:46;94564.53;;;21.66;100.00
12793;BME280;6460;42.684;23.260;2023-06-24T01:39:16;94563.31;;;21.83;100.00
12793;BME280;6460;42.684;23.260;2023-06-24T01:41:49;94570.94;;;21.76;100.00
12793;BME280;6460;42.684;23.260;2023-06-24T01:44:18;94568.78;;;21.83;100.00
12793;BME280;6460;42.684;23.260;2023-06-24T01:46:51;94577.84;;;21.64;100.00
12793;BME280;6460;42.684;23.260;2023-06-24T01:49:22;94581.03;;;21.79;100.00
12793;BME280;6460;42.684;23.260;2023-06-24T01:51:51;94583.59;;;21.70;100.00
12793;BME280;6460;42.684;23.260;2023-06-24T01:54:20;94584.34;;;21.70;100.00
12793;BME280;6460;42.684;23.260;2023-06-24T01:56:49;94583.16;;;21.71;100.00
12793;BME280;6460;42.684;23.260;2023-06-24T01:59:21;94585.19;;;21.67;100.00
12793;BME280;6460;42.684;23.260;2023-06-24T02:01:50;94587.59;;;21.65;100.00
12793;BME280;6460;42.684;23.260;2023-06-24T02:04:20;94593.59;;;21.60;100.00
12793;BME280;6460;42.684;23.260;2023-06-24T02:06:48;94595.03;;;21.64;100.00
12793;BME280;6460;42.684;23.260;2023-06-24T02:09:18;94593.59;;;21.60;100.00
12793;BME280;6460;42.684;23.260;2023-06-24T02:11:46;94601.41;;;21.94;100.00
12793;BME280;6460;42.684;23.260;2023-06-24T02:14:16;94596.63;;;21.98;100.00
12793;BME280;6460;42.684;23.260;2023-06-24T02:16:45;94595.38;;;21.83;100.00
12793;BME280;6460;42.684;23.260;2023-06-24T02:19:15;94595.13;;;21.77;100.00
12793;BME280;6460;42.684;23.260;2023-06-24T02:21:44;94595.28;;;21.86;100.00
12793;BME280;6460;42.684;23.260;2023-06-24T02:24:12;94609.53;;;21.45;100.00
12793;BME280;6460;42.684;23.260;2023-06-24T02:26:41;94614.56;;;21.47;100.00
12793;BME280;6460;42.684;23.260;2023-06-24T02:29:09;94621.09;;;21.53;100.00
12793;BME280;6460;42.684;23.260;2023-06-24T02:31:38;94619.06;;;21.73;100.00
12793;BME280;6460;42.684;23.260;2023-06-24T02:34:05;94629.16;;;21.76;100.00
12793;BME280;6460;42.684;23.260;2023-06-24T02:36:34;94624.19;;;21.71;100.00
12793;BME280;6460;42.684;23.260;2023-06-24T02:39:02;94624.53;;;21.73;100.00
12793;BME280;6460;42.684;23.260;2023-06-24T02:41:29;94631.13;;;21.76;100.00
12793;BME280;6460;42.684;23.260;2023-06-24T02:43:57;94631.38;;;21.81;100.00
12793;BME280;6460;42.684;23.260;2023-06-24T02:46:25;94634.91;;;21.46;100.00
12793;BME280;6460;42.684;23.260;2023-06-24T02:48:56;94634.16;;;21.26;100.00
12793;BME280;6460;42.684;23.260;2023-06-24T02:51:25;94629.03;;;21.47;100.00
12793;BME280;6460;42.684;23.260;2023-06-24T02:53:55;94632.88;;;21.50;100.00
12793;BME280;6460;42.684;23.260;2023-06-24T02:56:24;94640.56;;;21.55;100.00
12793;BME280;6460;42.684;23.260;2023-06-24T02:58:54;94642.63;;;21.67;100.00
12793;BME280;6460;42.684;23.260;2023-06-24T03:01:22;94646.16;;;21.68;100.00
12793;BME280;6460;42.684;23.260;2023-06-24T03:03:53;94644.19;;;21.68;100.00
12793;BME280;6460;42.684;23.260;2023-06-24T03:06:21;94629.31;;;21.69;100.00
12793;BME280;6460;42.684;23.260;2023-06-24T03:08:49;94627.34;;;21.86;100.00
12793;BME280;6460;42.684;23.260;2023-06-24T03:11:18;94631.66;;;21.87;100.00
12793;BME280;6460;42.684;23.260;2023-06-24T03:13:46;94635.94;;;21.88;100.00
12793;BME280;6460;42.684;23.260;2023-06-24T03:16:13;94636.38;;;22.02;100.00
12793;BME280;6460;42.684;23.260;2023-06-24T03:18:41;94638.00;;;22.00;100.00
12793;BME280;6460;42.684;23.260;2023-06-24T03:21:09;94636.47;;;21.99;100.00
12793;BME280;6460;42.684;23.260;2023-06-24T03:23:37;94644.81;;;21.76;100.00
12793;BME280;6460;42.684;23.260;2023-06-24T03:26:05;94646.09;;;21.87;100.00
12793;BME280;6460;42.684;23.260;2023-06-24T03:28:36;94651.44;;;21.94;100.00
12793;BME280;6460;42.684;23.260;2023-06-24T03:31:04;94659.28;;;21.92;100.00
12793;BME280;6460;42.684;23.260;2023-06-24T03:33:31;94668.09;;;21.64;100.00
12793;BME280;6460;42.684;23.260;2023-06-24T03:35:58;94663.97;;;21.76;100.00
12793;BME280;6460;42.684;23.260;2023-06-24T03:38:26;94663.75;;;21.67;100.00
12793;BME280;6460;42.684;23.260;2023-06-24T03:40:54;94663.53;;;21.77;100.00
12793;BME280;6460;42.684;23.260;2023-06-24T03:43:21;94664.63;;;21.80;100.00
12793;BME280;6460;42.684;23.260;2023-06-24T03:45:50;94678.81;;;21.94;100.00
12793;BME280;6460;42.684;23.260;2023-06-24T03:48:17;94681.13;;;21.96;100.00
12793;BME280;6460;42.684;23.260;2023-06-24T03:50:44;94687.22;;;21.84;100.00
12793;BME280;6460;42.684;23.260;2023-06-24T03:53:12;94683.53;;;21.74;100.00
12793;BME280;6460;42.684;23.260;2023-06-24T03:55:39;94683.03;;;21.79;100.00
12793;BME280;6460;42.684;23.260;2023-06-24T03:58:06;94675.31;;;21.74;100.00
12793;BME280;6460;42.684;23.260;2023-06-24T04:00:34;94678.75;;;21.98;100.00
12793;BME280;6460;42.684;23.260;2023-06-24T04:03:06;94676.03;;;22.14;100.00
12793;BME280;6460;42.684;23.260;2023-06-24T04:05:34;94682.44;;;22.24;100.00
12793;BME280;6460;42.684;23.260;2023-06-24T04:08:01;94684.13;;;22.34;100.00
12793;BME280;6460;42.684;23.260;2023-06-24T04:10:31;94690.66;;;22.40;100.00
12793;BME280;6460;42.684;23.260;2023-06-24T04:12:59;94687.81;;;22.59;100.00
12793;BME280;6460;42.684;23.260;2023-06-24T04:15:26;94678.09;;;22.75;100.00
12793;BME280;6460;42.684;23.260;2023-06-24T04:17:53;94670.78;;;22.84;100.00
12793;BME280;6460;42.684;23.260;2023-06-24T04:20:22;94661.56;;;22.78;100.00
12793;BME280;6460;42.684;23.260;2023-06-24T04:22:49;94664.97;;;22.66;100.00
12793;BME280;6460;42.684;23.260;2023-06-24T04:25:17;94665.53;;;22.90;100.00
12793;BME280;6460;42.684;23.260;2023-06-24T04:27:44;94666.50;;;23.12;100.00
12793;BME280;6460;42.684;23.260;2023-06-24T04:30:12;94655.72;;;22.76;100.00
12793;BME280;6460;42.684;23.260;2023-06-24T04:32:39;94661.13;;;23.08;100.00
12793;BME280;6460;42.684;23.260;2023-06-24T04:35:08;94662.06;;;23.02;100.00
12793;BME280;6460;42.684;23.260;2023-06-24T04:37:36;94665.13;;;23.33;100.00
12793;BME280;6460;42.684;23.260;2023-06-24T04:40:05;94665.81;;;23.37;100.00
12793;BME280;6460;42.684;23.260;2023-06-24T04:42:33;94670.16;;;23.50;100.00
12793;BME280;6460;42.684;23.260;2023-06-24T04:45:00;94670.94;;;23.51;100.00
12793;BME280;6460;42.684;23.260;2023-06-24T04:47:31;94675.88;;;23.56;100.00
12793;BME280;6460;42.684;23.260;2023-06-24T04:49:58;94672.69;;;23.57;100.00
12793;BME280;6460;42.684;23.260;2023-06-24T04:52:25;94684.78;;;23.60;100.00
12793;BME280;6460;42.684;23.260;2023-06-24T04:54:54;94679.88;;;23.67;100.00
12793;BME280;6460;42.684;23.260;2023-06-24T04:57:27;94675.47;;;23.70;100.00
12793;BME280;6460;42.684;23.260;2023-06-24T04:59:55;94668.75;;;23.71;100.00
12793;BME280;6460;42.684;23.260;2023-06-24T05:02:23;94676.25;;;23.83;100.00
12793;BME280;6460;42.684;23.260;2023-06-24T05:04:51;94674.41;;;23.93;99.25
12793;BME280;6460;42.684;23.260;2023-06-24T05:07:19;94678.25;;;23.95;96.24
12793;BME280;6460;42.684;23.260;2023-06-24T05:09:47;94673.03;;;23.59;97.44
12793;BME280;6460;42.684;23.260;2023-06-24T05:12:15;94674.09;;;23.49;99.18
12793;BME280;6460;42.684;23.260;2023-06-24T05:14:42;94678.53;;;23.85;97.27
12793;BME280;6460;42.684;23.260;2023-06-24T05:17:10;94677.34;;;23.98;96.18
12793;BME280;6460;42.684;23.260;2023-06-24T05:19:37;94670.22;;;24.26;93.06
12793;BME280;6460;42.684;23.260;2023-06-24T05:22:04;94666.06;;;24.21;91.63
12793;BME280;6460;42.684;23.260;2023-06-24T05:24:31;94658.25;;;24.07;90.69
12793;BME280;6460;42.684;23.260;2023-06-24T05:27:04;94655.50;;;24.33;89.50
12793;BME280;6460;42.684;23.260;2023-06-24T05:29:32;94657.84;;;24.21;90.28
12793;BME280;6460;42.684;23.260;2023-06-24T05:32:00;94658.19;;;24.58;87.79
12793;BME280;6460;42.684;23.260;2023-06-24T05:34:29;94658.06;;;24.74;89.04
12793;BME280;6460;42.684;23.260;2023-06-24T05:36:56;94665.47;;;24.99;87.33
12793;BME280;6460;42.684;23.260;2023-06-24T05:39:24;94666.44;;;25.05;86.61
12793;BME280;6460;42.684;23.260;2023-06-24T05:41:51;94658.97;;;25.05;88.46
12793;BME280;6460;42.684;23.260;2023-06-24T05:44:18;94662.00;;;25.20;86.07
12793;BME280;6460;42.684;23.260;2023-06-24T05:46:46;94657.88;;;25.24;85.51
12793;BME280;6460;42.684;23.260;2023-06-24T05:49:13;94663.44;;;25.34;86.53
12793;BME280;6460;42.684;23.260;2023-06-24T05:51:40;94654.03;;;25.44;84.30
12793;BME280;6460;42.684;23.260;2023-06-24T05:54:07;94651.06;;;25.51;83.37
12793;BME280;6460;42.684;23.260;2023-06-24T05:56:34;94651.72;;;25.55;85.30
12793;BME280;6460;42.684;23.260;2023-06-24T05:59:02;94657.78;;;25.71;82.44
12793;BME280;6460;42.684;23.260;2023-06-24T06:01:30;94649.69;;;25.77;82.81
12793;BME280;6460;42.684;23.260;2023-06-24T06:03:58;94647.34;;;25.97;80.88
12793;BME280;6460;42.684;23.260;2023-06-24T06:06:26;94649.63;;;25.99;82.18
12793;BME280;6460;42.684;23.260;2023-06-24T06:08:53;94645.31;;;26.19;80.09
12793;BME280;6460;42.684;23.260;2023-06-24T06:11:21;94647.19;;;26.32;78.89
12793;BME280;6460;42.684;23.260;2023-06-24T06:13:48;94645.00;;;26.26;79.05
12793;BME280;6460;42.684;23.260;2023-06-24T06:16:15;94649.41;;;26.15;81.01
12793;BME280;6460;42.684;23.260;2023-06-24T06:18:43;94645.22;;;26.32;79.56
12793;BME280;6460;42.684;23.260;2023-06-24T06:21:12;94646.59;;;26.46;78.82
12793;BME280;6460;42.684;23.260;2023-06-24T06:23:39;94648.78;;;26.51;77.50
12793;BME280;6460;42.684;23.260;2023-06-24T06:26:07;94642.44;;;26.32;78.81
12793;BME280;6460;42.684;23.260;2023-06-24T06:28:34;94654.41;;;26.38;79.96
12793;BME280;6460;42.684;23.260;2023-06-24T06:31:01;94650.63;;;26.63;77.42
12793;BME280;6460;42.684;23.260;2023-06-24T06:33:29;94652.34;;;26.78;76.59
12793;BME280;6460;42.684;23.260;2023-06-24T06:35:56;94652.69;;;26.90;75.64
12793;BME280;6460;42.684;23.260;2023-06-24T06:38:26;94661.41;;;26.88;74.26
12793;BME280;6460;42.684;23.260;2023-06-24T06:40:54;94653.78;;;27.01;74.23
12793;BME280;6460;42.684;23.260;2023-06-24T06:43:21;94667.84;;;27.12;75.53
12793;BME280;6460;42.684;23.260;2023-06-24T06:45:48;94661.28;;;27.10;73.31
12793;BME280;6460;42.684;23.260;2023-06-24T06:48:16;94668.19;;;27.14;71.51
12793;BME280;6460;42.684;23.260;2023-06-24T06:50:45;94661.44;;;27.24;72.79
12793;BME280;6460;42.684;23.260;2023-06-24T06:53:12;94663.88;;;27.31;71.74
12793;BME280;6460;42.684;23.260;2023-06-24T06:55:41;94655.91;;;27.43;71.51
12793;BME280;6460;42.684;23.260;2023-06-24T06:58:08;94659.75;;;27.45;72.50
12793;BME280;6460;42.684;23.260;2023-06-24T07:00:36;94658.66;;;27.52;72.92
12793;BME280;6460;42.684;23.260;2023-06-24T07:03:03;94655.88;;;27.61;72.23
12793;BME280;6460;42.684;23.260;2023-06-24T07:05:30;94658.47;;;27.73;71.48
12793;BME280;6460;42.684;23.260;2023-06-24T07:07:57;94665.97;;;27.91;71.14
12793;BME280;6460;42.684;23.260;2023-06-24T07:10:24;94659.16;;;28.10;69.51
12793;BME280;6460;42.684;23.260;2023-06-24T07:12:53;94671.50;;;28.33;67.87
12793;BME280;6460;42.684;23.260;2023-06-24T07:15:24;94662.63;;;28.53;65.97
12793;BME280;6460;42.684;23.260;2023-06-24T07:17:52;94662.28;;;28.36;66.45
12793;BME280;6460;42.684;23.260;2023-06-24T07:20:19;94658.88;;;28.41;67.55
12793;BME280;6460;42.684;23.260;2023-06-24T07:22:47;94659.97;;;28.67;66.94
12793;BME280;6460;42.684;23.260;2023-06-24T07:25:14;94665.38;;;28.62;67.99
12793;BME280;6460;42.684;23.260;2023-06-24T07:27:42;94650.22;;;28.81;65.91
12793;BME280;6460;42.684;23.260;2023-06-24T07:30:12;94648.53;;;28.98;65.57
12793;BME280;6460;42.684;23.260;2023-06-24T07:32:39;94646.38;;;29.02;64.37
12793;BME280;6460;42.684;23.260;2023-06-24T07:35:07;94651.47;;;29.18;64.91
12793;BME280;6460;42.684;23.260;2023-06-24T07:37:34;94652.41;;;29.15;64.40
12793;BME280;6460;42.684;23.260;2023-06-24T07:40:02;94652.06;;;29.22;63.25
12793;BME280;6460;42.684;23.260;2023-06-24T07:42:30;94643.41;;;29.29;60.28
12793;BME280;6460;42.684;23.260;2023-06-24T07:44:58;94643.72;;;29.46;60.84
12793;BME280;6460;42.684;23.260;2023-06-24T07:47:27;94646.47;;;29.46;61.05
12793;BME280;6460;42.684;23.260;2023-06-24T07:49:54;94648.31;;;29.78;60.04
12793;BME280;6460;42.684;23.260;2023-06-24T07:52:21;94647.19;;;30.00;58.59
12793;BME280;6460;42.684;23.260;2023-06-24T07:54:48;94650.63;;;29.80;58.96
12793;BME280;6460;42.684;23.260;2023-06-24T07:57:15;94653.03;;;29.87;58.51
12793;BME280;6460;42.684;23.260;2023-06-24T07:59:43;94660.38;;;30.05;58.00
12793;BME280;6460;42.684;23.260;2023-06-24T08:02:10;94658.84;;;30.18;55.69
12793;BME280;6460;42.684;23.260;2023-06-24T08:04:38;94654.16;;;30.24;57.26
12793;BME280;6460;42.684;23.260;2023-06-24T08:07:06;94654.22;;;30.30;58.52
12793;BME280;6460;42.684;23.260;2023-06-24T08:09:33;94658.44;;;30.40;57.33
12793;BME280;6460;42.684;23.260;2023-06-24T08:12:00;94648.41;;;30.28;55.57
12793;BME280;6460;42.684;23.260;2023-06-24T08:14:27;94654.00;;;30.48;54.97
12793;BME280;6460;42.684;23.260;2023-06-24T08:16:55;94651.34;;;30.54;54.47
12793;BME280;6460;42.684;23.260;2023-06-24T08:19:22;94649.28;;;30.69;55.49
12793;BME280;6460;42.684;23.260;2023-06-24T08:21:50;94644.28;;;30.93;55.13
12793;BME280;6460;42.684;23.260;2023-06-24T08:24:18;94643.34;;;30.96;54.85
12793;BME280;6460;42.684;23.260;2023-06-24T08:26:45;94643.50;;;30.37;56.59
12793;BME280;6460;42.684;23.260;2023-06-24T08:29:12;94635.53;;;30.60;55.08
12793;BME280;6460;42.684;23.260;2023-06-24T08:31:39;94642.34;;;31.39;53.79
12793;BME280;6460;42.684;23.260;2023-06-24T08:34:07;94636.78;;;31.39;53.84
12793;BME280;6460;42.684;23.260;2023-06-24T08:36:34;94641.25;;;30.21;58.04
12793;BME280;6460;42.684;23.260;2023-06-24T08:39:04;94638.97;;;30.05;60.98
12793;BME280;6460;42.684;23.260;2023-06-24T08:41:31;94639.47;;;30.53;56.56
12793;BME280;6460;42.684;23.260;2023-06-24T08:43:58;94627.34;;;31.31;53.46
12793;BME280;6460;42.684;23.260;2023-06-24T08:46:26;94625.91;;;31.62;52.82
12793;BME280;6460;42.684;23.260;2023-06-24T08:49:01;94616.06;;;31.40;53.63
12793;BME280;6460;42.684;23.260;2023-06-24T08:51:31;94619.09;;;31.63;52.88
12793;BME280;6460;42.684;23.260;2023-06-24T08:54:02;94617.44;;;32.39;51.76
12793;BME280;6460;42.684;23.260;2023-06-24T08:56:31;94620.66;;;31.95;53.42
12793;BME280;6460;42.684;23.260;2023-06-24T08:58:58;94618.50;;;32.41;53.16
12793;BME280;6460;42.684;23.260;2023-06-24T09:01:27;94622.91;;;32.22;52.58
12793;BME280;6460;42.684;23.260;2023-06-24T09:03:55;94619.25;;;31.79;53.00
12793;BME280;6460;42.684;23.260;2023-06-24T09:06:22;94618.50;;;32.41;51.53
12793;BME280;6460;42.684;23.260;2023-06-24T09:08:53;94614.97;;;32.46;52.45
12793;BME280;6460;42.684;23.260;2023-06-24T09:11:24;94614.59;;;32.28;50.45
12793;BME280;6460;42.684;23.260;2023-06-24T09:13:56;94613.19;;;32.86;49.14
12793;BME280;6460;42.684;23.260;2023-06-24T09:16:24;94611.31;;;33.14;48.39
12793;BME280;6460;42.684;23.260;2023-06-24T09:18:53;94614.22;;;32.94;48.23
12793;BME280;6460;42.684;23.260;2023-06-24T09:21:23;94616.44;;;32.73;50.49
12793;BME280;6460;42.684;23.260;2023-06-24T09:23:55;94618.91;;;33.19;49.29
12793;BME280;6460;42.684;23.260;2023-06-24T09:26:23;94623.34;;;32.89;47.83
12793;BME280;6460;42.684;23.260;2023-06-24T09:28:51;94622.13;;;33.01;48.25
12793;BME280;6460;42.684;23.260;2023-06-24T09:31:20;94616.75;;;33.57;49.02
12793;BME280;6460;42.684;23.260;2023-06-24T09:33:48;94607.41;;;33.93;45.92
12793;BME280;6460;42.684;23.260;2023-06-24T09:36:16;94615.78;;;33.98;45.57
12793;BME280;6460;42.684;23.260;2023-06-24T09:38:43;94617.09;;;34.25;42.29
12793;BME280;6460;42.684;23.260;2023-06-24T09:41:11;94611.47;;;33.81;44.07
12793;BME280;6460;42.684;23.260;2023-06-24T09:43:38;94619.31;;;33.66;44.73
12793;BME280;6460;42.684;23.260;2023-06-24T09:46:07;94617.72;;;33.42;46.28
12793;BME280;6460;42.684;23.260;2023-06-24T09:48:36;94612.47;;;33.89;43.76
12793;BME280;6460;42.684;23.260;2023-06-24T09:51:04;94617.47;;;33.51;42.82
12793;BME280;6460;42.684;23.260;2023-06-24T09:53:32;94602.53;;;33.43;44.28
12793;BME280;6460;42.684;23.260;2023-06-24T09:56:01;94603.31;;;33.49;45.42
12793;BME280;6460;42.684;23.260;2023-06-24T09:58:31;94610.19;;;33.76;46.79
12793;BME280;6460;42.684;23.260;2023-06-24T10:01:02;94592.97;;;33.89;44.82
12793;BME280;6460;42.684;23.260;2023-06-24T10:03:32;94588.91;;;33.90;44.11
12793;BME280;6460;42.684;23.260;2023-06-24T10:06:01;94589.63;;;33.51;45.74
12793;BME280;6460;42.684;23.260;2023-06-24T10:08:30;94593.38;;;33.26;44.32
12793;BME280;6460;42.684;23.260;2023-06-24T10:10:58;94590.19;;;34.00;43.75
12793;BME280;6460;42.684;23.260;2023-06-24T10:13:25;94588.59;;;33.54;43.82
12793;BME280;6460;42.684;23.260;2023-06-24T10:15:54;94578.50;;;34.46;42.54
12793;BME280;6460;42.684;23.260;2023-06-24T10:18:36;94576.34;;;34.91;39.84
12793;BME280;6460;42.684;23.260;2023-06-24T10:21:07;94574.75;;;35.01;40.05
12793;BME280;6460;42.684;23.260;2023-06-24T10:23:39;94564.97;;;34.72;39.43
12793;BME280;6460;42.684;23.260;2023-06-24T10:26:09;94551.81;;;34.62;40.66
12793;BME280;6460;42.684;23.260;2023-06-24T10:29:10;94550.34;;;35.07;38.14
12793;BME280;6460;42.684;23.260;2023-06-24T10:31:52;94554.34;;;34.65;41.73
12793;BME280;6460;42.684;23.260;2023-06-24T10:34:40;94549.25;;;34.69;39.98
12793;BME280;6460;42.684;23.260;2023-06-24T10:37:18;94540.13;;;35.67;38.30
12793;BME280;6460;42.684;23.260;2023-06-24T10:39:48;94541.56;;;35.38;39.21
12793;BME280;6460;42.684;23.260;2023-06-24T10:42:32;94530.38;;;35.38;39.40
12793;BME280;6460;42.684;23.260;2023-06-24T10:45:01;94523.16;;;35.89;37.67
12793;BME280;6460;42.684;23.260;2023-06-24T10:47:29;94515.09;;;34.98;38.99
12793;BME280;6460;42.684;23.260;2023-06-24T10:49:57;94507.44;;;35.45;38.02
12793;BME280;6460;42.684;23.260;2023-06-24T10:52:25;94514.78;;;35.84;37.24
12793;BME280;6460;42.684;23.260;2023-06-24T10:54:53;94512.19;;;35.91;37.17
12793;BME280;6460;42.684;23.260;2023-06-24T10:57:21;94504.56;;;35.62;37.37
12793;BME280;6460;42.684;23.260;2023-06-24T10:59:50;94512.53;;;35.82;37.06
12793;BME280;6460;42.684;23.260;2023-06-24T11:02:18;94497.59;;;36.28;37.70
12793;BME280;6460;42.684;23.260;2023-06-24T11:04:46;94504.81;;;35.23;38.30
12793;BME280;6460;42.684;23.260;2023-06-24T11:07:13;94502.19;;;35.36;36.15
12793;BME280;6460;42.684;23.260;2023-06-24T11:09:47;94511.22;;;36.19;34.01
12793;BME280;6460;42.684;23.260;2023-06-24T11:12:14;94507.28;;;36.27;34.98
12793;BME280;6460;42.684;23.260;2023-06-24T11:14:42;94510.31;;;36.29;34.06
12793;BME280;6460;42.684;23.260;2023-06-24T11:17:09;94507.16;;;36.38;36.34
12793;BME280;6460;42.684;23.260;2023-06-24T11:19:36;94513.22;;;36.42;35.21
12793;BME280;6460;42.684;23.260;2023-06-24T11:22:07;94504.72;;;36.29;34.45
12793;BME280;6460;42.684;23.260;2023-06-24T11:24:35;94511.91;;;36.25;33.72
12793;BME280;6460;42.684;23.260;2023-06-24T11:27:05;94510.16;;;36.89;30.35
12793;BME280;6460;42.684;23.260;2023-06-24T11:29:33;94501.50;;;36.87;28.24
12793;BME280;6460;42.684;23.260;2023-06-24T11:32:02;94498.03;;;36.81;30.91
12793;BME280;6460;42.684;23.260;2023-06-24T11:34:29;94501.06;;;36.83;31.27
12793;BME280;6460;42.684;23.260;2023-06-24T11:36:57;94497.78;;;36.36;32.99
12793;BME280;6460;42.684;23.260;2023-06-24T11:39:25;94502.38;;;36.33;33.64
12793;BME280;6460;42.684;23.260;2023-06-24T11:41:54;94495.84;;;36.49;31.82
12793;BME280;6460;42.684;23.260;2023-06-24T11:44:26;94496.22;;;36.40;31.16
12793;BME280;6460;42.684;23.260;2023-06-24T11:46:53;94488.50;;;37.08;30.86
12793;BME280;6460;42.684;23.260;2023-06-24T11:49:31;94480.47;;;36.99;31.08
12793;BME280;6460;42.684;23.260;2023-06-24T11:51:58;94481.16;;;36.43;31.79
12793;BME280;6460;42.684;23.260;2023-06-24T11:54:26;94482.97;;;36.17;32.09
12793;BME280;6460;42.684;23.260;2023-06-24T11:56:53;94485.00;;;34.75;34.62
12793;BME280;6460;42.684;23.260;2023-06-24T11:59:22;94466.53;;;35.48;34.10
12793;BME280;6460;42.684;23.260;2023-06-24T12:01:56;94458.31;;;35.61;35.07
12793;BME280;6460;42.684;23.260;2023-06-24T12:04:27;94450.00;;;35.80;34.04
12793;BME280;6460;42.684;23.260;2023-06-24T12:06:55;94441.72;;;35.69;33.51
12793;BME280;6460;42.684;23.260;2023-06-24T12:09:22;94435.44;;;35.57;32.79
12793;BME280;6460;42.684;23.260;2023-06-24T12:11:50;94432.69;;;35.51;32.82
12793;BME280;6460;42.684;23.260;2023-06-24T12:14:18;94425.47;;;34.96;33.50
12793;BME280;6460;42.684;23.260;2023-06-24T12:16:45;94440.44;;;34.99;33.85
12793;BME280;6460;42.684;23.260;2023-06-24T12:19:13;94446.50;;;35.03;35.90
12793;BME280;6460;42.684;23.260;2023-06-24T12:21:41;94445.91;;;34.75;35.22
12793;BME280;6460;42.684;23.260;2023-06-24T12:24:08;94437.34;;;34.62;35.22
12793;BME280;6460;42.684;23.260;2023-06-24T12:26:35;94436.13;;;34.46;36.09
12793;BME280;6460;42.684;23.260;2023-06-24T12:29:03;94440.03;;;34.15;38.42
12793;BME280;6460;42.684;23.260;2023-06-24T12:31:30;94433.53;;;33.51;36.86
12793;BME280;6460;42.684;23.260;2023-06-24T12:33:57;94436.78;;;33.94;35.19
12793;BME280;6460;42.684;23.260;2023-06-24T12:36:26;94422.63;;;33.70;36.02
12793;BME280;6460;42.684;23.260;2023-06-24T12:38:53;94435.56;;;33.79;36.66
12793;BME280;6460;42.684;23.260;2023-06-24T12:41:20;94451.22;;;32.93;38.57
12793;BME280;6460;42.684;23.260;2023-06-24T12:43:47;94472.81;;;33.42;37.67
12793;BME280;6460;42.684;23.260;2023-06-24T12:46:14;94481.94;;;33.60;36.93
12793;BME280;6460;42.684;23.260;2023-06-24T12:48:42;94494.91;;;32.65;37.34
12793;BME280;6460;42.684;23.260;2023-06-24T12:51:10;94508.09;;;32.16;40.41
12793;BME280;6460;42.684;23.260;2023-06-24T12:53:38;94501.66;;;32.53;39.91
12793;BME280;6460;42.684;23.260;2023-06-24T12:56:06;94510.09;;;32.64;38.64
12793;BME280;6460;42.684;23.260;2023-06-24T12:58:34;94497.78;;;32.92;39.01
12793;BME280;6460;42.684;23.260;2023-06-24T13:01:01;94499.06;;;32.91;38.30
12793;BME280;6460;42.684;23.260;2023-06-24T13:03:28;94495.00;;;32.98;40.98
12793;BME280;6460;42.684;23.260;2023-06-24T13:05:55;94488.16;;;32.88;41.50